createdAt,value
2018-01-11T00:01:46.297Z,4.97
2018-01-11T00:04:13.848Z,4.57
2018-01-11T00:06:41.350Z,6.05
2018-01-11T00:09:09.639Z,7.72
2018-01-11T00:11:37.186Z,5.47
2018-01-11T00:14:04.716Z,5.45
2018-01-11T00:16:32.192Z,6.50
2018-01-11T00:19:00.527Z,5.72
2018-01-11T00:21:28.089Z,4.70
2018-01-11T00:23:55.545Z,6.00
2018-01-11T00:26:23.133Z,6.00
2018-01-11T00:28:50.690Z,6.15
2018-01-11T00:31:18.201Z,4.45
2018-01-11T00:33:45.731Z,5.50
2018-01-11T00:36:13.233Z,4.80
2018-01-11T00:38:40.813Z,5.40
2018-01-11T00:41:08.257Z,6.05
2018-01-11T00:43:35.896Z,5.30
2018-01-11T00:46:03.492Z,5.35
2018-01-11T00:48:30.965Z,5.15
2018-01-11T00:50:58.534Z,5.20
2018-01-11T00:53:26.871Z,6.93
2018-01-11T00:55:54.435Z,4.68
2018-01-11T00:58:21.928Z,6.50
2018-01-11T01:00:49.544Z,6.35
2018-01-11T01:03:17.079Z,4.62
2018-01-11T01:05:44.623Z,4.78
2018-01-11T01:08:13.033Z,4.22
2018-01-11T01:10:40.593Z,4.72
2018-01-11T01:13:08.184Z,5.03
2018-01-11T01:15:35.675Z,5.37
2018-01-11T01:18:03.211Z,5.75
2018-01-11T01:20:30.739Z,5.60
2018-01-11T01:22:58.190Z,6.12
2018-01-11T01:25:25.750Z,5.80
2018-01-11T01:27:53.269Z,6.03
2018-01-11T01:30:20.786Z,5.35
2018-01-11T01:32:48.290Z,6.32
2018-01-11T01:35:16.621Z,6.45
2018-01-11T01:37:44.129Z,6.55
2018-01-11T01:40:11.651Z,6.18
2018-01-11T01:42:39.175Z,5.93
2018-01-11T01:45:06.677Z,5.95
2018-01-11T01:47:34.228Z,6.25
2018-01-11T01:50:01.769Z,5.57
2018-01-11T01:52:29.290Z,6.32
2018-01-11T01:54:56.809Z,5.50
2018-01-11T01:57:24.396Z,6.25
2018-01-11T01:59:51.991Z,7.32
2018-01-11T02:02:19.571Z,4.95
2018-01-11T02:04:47.166Z,7.10
2018-01-11T02:07:14.696Z,6.68
2018-01-11T02:09:42.253Z,6.78
2018-01-11T02:12:10.375Z,8.27
2018-01-11T02:14:37.879Z,7.75
2018-01-11T02:17:05.423Z,6.05
2018-01-11T02:19:32.971Z,6.78
2018-01-11T02:22:00.509Z,5.93
2018-01-11T02:24:29.537Z,6.28
2018-01-11T02:26:57.085Z,5.78
2018-01-11T02:29:24.603Z,5.75
2018-01-11T02:31:52.125Z,6.37
2018-01-11T02:34:19.696Z,7.00
2018-01-11T02:36:47.252Z,5.32
2018-01-11T02:39:14.810Z,6.07
2018-01-11T02:41:42.369Z,5.32
2018-01-11T02:44:09.910Z,4.72
2018-01-11T02:46:37.699Z,4.47
2018-01-11T02:49:05.561Z,5.18
2018-01-11T02:51:33.059Z,4.68
2018-01-11T02:54:01.363Z,5.80
2018-01-11T02:56:28.803Z,4.10
2018-01-11T02:58:57.120Z,4.15
2018-01-11T03:01:24.704Z,3.40
2018-01-11T03:03:52.270Z,3.97
2018-01-11T03:06:19.784Z,3.87
2018-01-11T03:08:47.309Z,3.85
2018-01-11T03:11:15.605Z,3.50
2018-01-11T03:13:43.116Z,4.47
2018-01-11T03:16:10.640Z,4.47
2018-01-11T03:18:38.187Z,4.25
2018-01-11T03:21:05.771Z,5.00
2018-01-11T03:23:33.236Z,5.50
2018-01-11T03:26:00.685Z,3.67
2018-01-11T03:28:28.363Z,6.22
2018-01-11T03:30:56.003Z,3.50
2018-01-11T03:33:23.567Z,4.60
2018-01-11T03:35:51.081Z,2.95
2018-01-11T03:38:18.592Z,3.70
2018-01-11T03:40:46.132Z,3.47
2018-01-11T03:43:13.690Z,5.05
2018-01-11T03:45:41.369Z,4.12
2018-01-11T03:48:09.031Z,5.07
2018-01-11T03:50:36.604Z,4.78
2018-01-11T03:53:04.145Z,3.35
2018-01-11T03:55:31.949Z,4.10
2018-01-11T03:58:00.989Z,4.40
2018-01-11T04:00:28.519Z,4.32
2018-01-11T04:02:56.092Z,4.43
2018-01-11T04:05:24.416Z,5.00
2018-01-11T04:07:51.973Z,6.28
2018-01-11T04:10:19.625Z,3.75
2018-01-11T04:12:47.180Z,3.83
2018-01-11T04:15:14.718Z,4.18
2018-01-11T04:17:42.260Z,3.37
2018-01-11T04:20:10.578Z,3.40
2018-01-11T04:22:38.118Z,4.20
2018-01-11T04:25:05.684Z,4.37
2018-01-11T04:27:33.232Z,4.20
2018-01-11T04:30:00.748Z,5.03
2018-01-11T04:32:28.289Z,3.55
2018-01-11T04:34:55.836Z,3.10
2018-01-11T04:37:23.378Z,3.70
2018-01-11T04:39:51.029Z,5.78
2018-01-11T04:42:19.297Z,2.95
2018-01-11T04:44:47.605Z,2.80
2018-01-11T04:47:15.222Z,4.68
2018-01-11T04:49:43.454Z,3.62
2018-01-11T04:52:10.962Z,2.95
2018-01-11T04:54:39.291Z,3.47
2018-01-11T04:57:06.847Z,3.70
2018-01-11T04:59:34.359Z,3.00
2018-01-11T05:02:02.688Z,3.97
2018-01-11T05:04:30.182Z,4.70
2018-01-11T05:06:57.766Z,3.62
2018-01-11T05:09:26.081Z,4.00
2018-01-11T05:11:53.659Z,3.80
2018-01-11T05:14:21.152Z,3.97
2018-01-11T05:16:48.587Z,3.70
2018-01-11T05:19:16.122Z,4.57
2018-01-11T05:21:43.664Z,5.15
2018-01-11T05:24:11.168Z,5.35
2018-01-11T05:26:38.714Z,5.20
2018-01-11T05:29:06.277Z,5.20
2018-01-11T05:31:33.842Z,6.20
2018-01-11T05:34:01.377Z,5.40
2018-01-11T05:36:28.854Z,4.93
2018-01-11T05:38:56.454Z,6.12
2018-01-11T05:41:23.981Z,4.45
2018-01-11T05:43:51.524Z,6.40
2018-01-11T05:46:19.032Z,6.20
2018-01-11T05:48:47.383Z,6.05
2018-01-11T05:51:14.941Z,4.95
2018-01-11T05:53:42.531Z,5.47
2018-01-11T05:56:10.885Z,5.35
2018-01-11T05:58:38.467Z,5.05
2018-01-11T06:01:06.762Z,5.87
2018-01-11T06:03:34.216Z,6.85
2018-01-11T06:06:01.787Z,8.52
2018-01-11T06:08:29.302Z,7.43
2018-01-11T06:10:56.894Z,5.68
2018-01-11T06:13:24.465Z,5.78
2018-01-11T06:15:52.062Z,7.75
2018-01-11T06:18:19.626Z,6.93
2018-01-11T06:20:47.291Z,6.47
2018-01-11T06:23:14.953Z,7.43
2018-01-11T06:25:42.466Z,9.15
2018-01-11T06:28:09.956Z,8.07
2018-01-11T06:30:37.597Z,7.40
2018-01-11T06:33:05.107Z,9.05
2018-01-11T06:35:32.699Z,10.20
2018-01-11T06:38:00.285Z,9.00
2018-01-11T06:40:27.843Z,9.07
2018-01-11T06:42:55.382Z,8.45
2018-01-11T06:45:22.966Z,8.18
2018-01-11T06:47:50.475Z,7.85
2018-01-11T06:50:18.817Z,10.57
2018-01-11T06:52:46.487Z,11.20
2018-01-11T06:55:14.055Z,11.23
2018-01-11T06:57:41.614Z,10.40
2018-01-11T07:00:09.369Z,8.77
2018-01-11T07:02:36.864Z,8.05
2018-01-11T07:05:05.218Z,8.15
2018-01-11T07:07:32.782Z,8.07
2018-01-11T07:10:00.457Z,9.57
2018-01-11T07:12:28.001Z,8.27
2018-01-11T07:14:55.523Z,8.27
2018-01-11T07:17:23.037Z,9.55
2018-01-11T07:19:51.564Z,7.90
2018-01-11T07:22:19.119Z,10.90
2018-01-11T07:24:46.679Z,8.35
2018-01-11T07:27:14.256Z,9.20
2018-01-11T07:29:41.780Z,7.03
2018-01-11T07:32:09.276Z,8.10
2018-01-11T07:34:36.833Z,6.97
2018-01-11T07:37:04.307Z,6.87
2018-01-11T07:39:31.841Z,5.25
2018-01-11T07:41:59.366Z,7.10
2018-01-11T07:44:26.886Z,8.85
2018-01-11T07:46:54.442Z,7.05
2018-01-11T07:49:23.597Z,6.87
2018-01-11T07:51:51.187Z,6.95
2018-01-11T07:54:18.927Z,7.22
2018-01-11T07:56:46.489Z,6.32
2018-01-11T07:59:14.217Z,7.68
2018-01-11T08:01:41.862Z,6.97
2018-01-11T08:04:09.439Z,6.90
2018-01-11T08:06:38.050Z,7.37
2018-01-11T08:09:05.608Z,7.05
2018-01-11T08:11:33.199Z,6.93
2018-01-11T08:14:00.759Z,7.45
2018-01-11T08:16:28.311Z,5.43
2018-01-11T08:18:55.835Z,7.45
2018-01-11T08:21:23.401Z,7.45
2018-01-11T08:23:50.850Z,6.68
2018-01-11T08:26:18.363Z,6.97
2018-01-11T08:28:45.948Z,9.15
2018-01-11T08:31:13.558Z,8.27
2018-01-11T08:33:41.043Z,8.63
2018-01-11T08:36:08.592Z,8.57
2018-01-11T08:38:36.152Z,6.45
2018-01-11T08:41:03.660Z,7.82
2018-01-11T08:43:31.196Z,7.62
2018-01-11T08:45:59.531Z,7.97
2018-01-11T08:48:27.082Z,7.05
2018-01-11T08:50:54.570Z,8.02
2018-01-11T08:53:22.011Z,7.57
2018-01-11T08:55:49.515Z,6.20
2018-01-11T08:58:17.937Z,5.85
2018-01-11T09:00:45.598Z,5.47
2018-01-11T09:03:13.215Z,5.70
2018-01-11T09:05:40.731Z,6.97
2018-01-11T09:08:08.221Z,6.35
2018-01-11T09:10:35.705Z,5.93
2018-01-11T09:13:04.090Z,5.85
2018-01-11T09:15:31.634Z,6.55
2018-01-11T09:17:59.997Z,7.68
2018-01-11T09:20:27.558Z,7.18
2018-01-11T09:22:55.877Z,7.28
2018-01-11T09:25:23.459Z,9.18
2018-01-11T09:27:50.923Z,7.15
2018-01-11T09:30:21.614Z,8.02
2018-01-11T09:32:50.326Z,8.40
2018-01-11T09:35:17.933Z,11.48
2018-01-11T09:37:45.501Z,8.27
2018-01-11T09:40:13.853Z,7.90
2018-01-11T09:42:41.444Z,8.15
2018-01-11T09:45:09.054Z,9.02
2018-01-11T09:47:36.602Z,9.43
2018-01-11T09:50:04.208Z,7.05
2018-01-11T09:52:31.689Z,7.57
2018-01-11T09:54:59.277Z,5.95
2018-01-11T09:57:26.810Z,9.45
2018-01-11T09:59:54.394Z,8.90
2018-01-11T10:02:21.959Z,8.35
2018-01-11T10:04:49.568Z,7.35
2018-01-11T10:07:18.020Z,7.50
2018-01-11T10:09:45.514Z,6.53
2018-01-11T10:12:13.041Z,9.55
2018-01-11T10:14:40.613Z,7.10
2018-01-11T10:17:08.119Z,8.57
2018-01-11T10:19:36.445Z,7.20
2018-01-11T10:22:04.099Z,7.15
2018-01-11T10:24:31.632Z,7.82
2018-01-11T10:26:59.173Z,5.43
2018-01-11T10:29:27.569Z,6.78
2018-01-11T10:31:55.023Z,8.02
2018-01-11T10:34:22.558Z,6.10
2018-01-11T10:36:50.886Z,8.95
2018-01-11T10:39:18.432Z,7.55
2018-01-11T10:41:46.100Z,7.82
2018-01-11T10:44:13.636Z,7.18
2018-01-11T10:46:41.197Z,5.10
2018-01-11T10:49:08.721Z,6.68
2018-01-11T10:51:36.230Z,7.12
2018-01-11T10:54:03.716Z,6.72
2018-01-11T10:56:31.212Z,4.87
2018-01-11T10:58:58.783Z,6.03
2018-01-11T11:01:32.016Z,7.45
2018-01-11T11:03:59.574Z,6.22
2018-01-11T11:06:27.146Z,8.02
2018-01-11T11:08:54.704Z,7.20
2018-01-11T11:11:22.339Z,7.60
2018-01-11T11:13:50.060Z,7.10
2018-01-11T11:16:18.360Z,7.43
2018-01-11T11:18:45.942Z,6.43
2018-01-11T11:21:14.210Z,6.40
2018-01-11T11:23:41.703Z,8.20
2018-01-11T11:26:09.172Z,5.85
2018-01-11T11:28:36.702Z,6.35
2018-01-11T11:31:04.212Z,4.90
2018-01-11T11:33:31.972Z,5.43
2018-01-11T11:35:59.509Z,4.62
2018-01-11T11:38:27.237Z,5.55
2018-01-11T11:40:54.772Z,5.20
2018-01-11T11:43:23.171Z,4.40
2018-01-11T11:45:50.732Z,4.85
2018-01-11T11:48:18.298Z,4.62
2018-01-11T11:50:45.814Z,4.80
2018-01-11T11:53:14.105Z,4.30
2018-01-11T11:55:42.378Z,3.80
2018-01-11T11:58:10.662Z,6.75
2018-01-11T12:00:38.217Z,6.85
2018-01-11T12:03:05.763Z,4.65
2018-01-11T12:05:34.128Z,4.60
2018-01-11T12:08:01.698Z,5.68
2018-01-11T12:10:30.001Z,4.05
2018-01-11T12:12:57.658Z,4.60
2018-01-11T12:15:25.236Z,4.10
2018-01-11T12:17:52.768Z,4.72
2018-01-11T12:20:21.079Z,4.00
2018-01-11T12:22:48.672Z,3.85
2018-01-11T12:25:16.222Z,4.37
2018-01-11T12:27:43.717Z,7.07
2018-01-11T12:30:11.222Z,5.20
2018-01-11T12:32:38.729Z,3.80
2018-01-11T12:35:06.254Z,2.62
2018-01-11T12:37:33.855Z,4.28
2018-01-11T12:40:01.384Z,2.65
2018-01-11T12:42:28.912Z,6.00
2018-01-11T12:44:56.499Z,5.30
2018-01-11T12:47:23.998Z,3.50
2018-01-11T12:49:51.493Z,5.00
2018-01-11T12:52:19.161Z,3.58
2018-01-11T12:54:46.674Z,4.32
2018-01-11T12:57:14.942Z,4.75
2018-01-11T12:59:43.277Z,4.60
2018-01-11T13:02:10.827Z,3.70
2018-01-11T13:04:38.387Z,4.90
2018-01-11T13:07:05.939Z,4.00
2018-01-11T13:09:33.476Z,3.70
2018-01-11T13:12:01.026Z,5.15
2018-01-11T13:14:28.573Z,4.70
2018-01-11T13:16:56.175Z,4.45
2018-01-11T13:19:23.704Z,3.87
2018-01-11T13:21:52.027Z,3.35
2018-01-11T13:24:19.587Z,3.78
2018-01-11T13:26:47.962Z,3.28
2018-01-11T13:29:15.461Z,3.67
2018-01-11T13:31:43.764Z,3.87
2018-01-11T13:34:12.096Z,6.87
2018-01-11T13:36:39.658Z,4.37
2018-01-11T13:39:07.259Z,4.45
2018-01-11T13:41:35.671Z,4.57
2018-01-11T13:44:03.114Z,5.85
2018-01-11T13:46:30.648Z,5.05
2018-01-11T13:48:58.982Z,4.28
2018-01-11T13:51:26.656Z,3.30
2018-01-11T13:53:54.268Z,3.40
2018-01-11T13:56:21.834Z,4.00
2018-01-11T13:58:49.343Z,4.60
2018-01-11T14:01:16.909Z,3.87
2018-01-11T14:03:44.423Z,6.28
2018-01-11T14:06:11.943Z,6.10
2018-01-11T14:08:40.566Z,5.90
2018-01-11T14:11:11.222Z,4.95
2018-01-11T14:13:38.733Z,4.65
2018-01-11T14:16:06.310Z,4.28
2018-01-11T14:18:33.863Z,3.97
2018-01-11T14:21:01.435Z,3.90
2018-01-11T14:23:29.063Z,2.95
2018-01-11T14:25:57.363Z,3.37
2018-01-11T14:28:24.948Z,4.90
2018-01-11T14:30:52.512Z,3.67
2018-01-11T14:33:20.025Z,3.85
2018-01-11T14:35:47.529Z,3.47
2018-01-11T14:38:15.036Z,3.05
2018-01-11T14:40:43.307Z,4.57
2018-01-11T14:43:10.847Z,3.80
2018-01-11T14:45:38.366Z,3.78
2018-01-11T14:48:06.006Z,4.32
2018-01-11T14:50:33.550Z,3.12
2018-01-11T14:53:01.865Z,2.90
2018-01-11T14:55:29.378Z,2.87
2018-01-11T14:57:56.938Z,3.22
2018-01-11T15:00:25.205Z,2.92
2018-01-11T15:02:52.802Z,2.00
2018-01-11T15:05:20.313Z,2.05
2018-01-11T15:07:48.150Z,2.47
2018-01-11T15:10:15.675Z,3.10
2018-01-11T15:12:44.122Z,2.25
2018-01-11T15:15:11.673Z,1.90
2018-01-11T15:17:39.160Z,2.25
2018-01-11T15:20:06.680Z,2.33
2018-01-11T15:22:34.327Z,2.08
2018-01-11T15:25:01.887Z,2.50
2018-01-11T15:27:29.430Z,2.30
2018-01-11T15:29:57.305Z,1.83
2018-01-11T15:32:24.879Z,1.90
2018-01-11T15:34:52.448Z,2.22
2018-01-11T15:37:20.026Z,2.78
2018-01-11T15:39:49.101Z,2.30
2018-01-11T15:42:16.855Z,2.62
2018-01-11T15:44:44.717Z,2.15
2018-01-11T15:47:12.166Z,1.90
2018-01-11T15:49:39.716Z,2.22
2018-01-11T15:52:07.236Z,3.00
2018-01-11T15:54:36.362Z,2.72
2018-01-11T15:57:03.924Z,2.35
2018-01-11T15:59:31.534Z,1.75
2018-01-11T16:01:58.984Z,1.98
2018-01-11T16:04:26.512Z,2.08
2018-01-11T16:06:54.040Z,2.25
2018-01-11T16:09:21.602Z,2.35
2018-01-11T16:11:49.906Z,3.10
2018-01-11T16:14:17.496Z,2.05
2018-01-11T16:16:44.933Z,1.90
2018-01-11T16:19:12.449Z,3.72
2018-01-11T16:21:40.733Z,3.10
2018-01-11T16:24:09.069Z,2.95
2018-01-11T16:26:36.659Z,2.60
2018-01-11T16:29:04.976Z,3.22
2018-01-11T16:31:32.557Z,3.12
2018-01-11T16:34:00.061Z,2.83
2018-01-11T16:36:28.316Z,3.40
2018-01-11T16:38:55.864Z,2.80
2018-01-11T16:41:23.443Z,2.42
2018-01-11T16:43:51.755Z,3.00
2018-01-11T16:46:19.315Z,8.75
2018-01-11T16:48:46.920Z,3.15
2018-01-11T16:51:15.261Z,3.00
2018-01-11T16:53:42.775Z,3.70
2018-01-11T16:56:10.301Z,2.70
2018-01-11T16:58:37.807Z,3.12
2018-01-11T17:01:05.306Z,3.65
2018-01-11T17:03:32.797Z,3.30
2018-01-11T17:06:00.255Z,4.07
2018-01-11T17:08:27.839Z,3.70
2018-01-11T17:10:55.346Z,4.47
2018-01-11T17:13:22.797Z,4.60
2018-01-11T17:15:50.277Z,3.42
2018-01-11T17:18:17.828Z,3.35
2018-01-11T17:20:45.352Z,3.55
2018-01-11T17:23:13.026Z,4.78
2018-01-11T17:25:40.653Z,3.90
2018-01-11T17:28:08.247Z,4.40
2018-01-11T17:30:35.757Z,3.47
2018-01-11T17:33:03.265Z,3.50
2018-01-11T17:35:30.810Z,4.12
2018-01-11T17:37:58.302Z,4.50
2018-01-11T17:40:26.606Z,3.58
2018-01-11T17:42:54.146Z,4.90
2018-01-11T17:45:21.678Z,18.98
2018-01-11T17:47:49.462Z,4.50
2018-01-11T17:50:17.187Z,5.15
2018-01-11T17:52:45.489Z,4.78
2018-01-11T17:55:13.070Z,4.60
2018-01-11T17:57:40.636Z,4.35
2018-01-11T18:00:08.258Z,2.92
2018-01-11T18:02:35.753Z,4.87
2018-01-11T18:05:03.270Z,4.25
2018-01-11T18:07:31.571Z,4.00
2018-01-11T18:09:59.130Z,4.82
2018-01-11T18:12:26.646Z,4.37
2018-01-11T18:14:54.190Z,4.75
2018-01-11T18:17:22.459Z,6.62
2018-01-11T18:19:49.997Z,4.85
2018-01-11T18:22:17.767Z,5.82
2018-01-11T18:24:45.302Z,4.75
2018-01-11T18:27:12.799Z,4.93
2018-01-11T18:29:40.341Z,4.90
2018-01-11T18:32:07.920Z,7.45
2018-01-11T18:34:35.466Z,5.85
2018-01-11T18:37:03.117Z,3.70
2018-01-11T18:39:30.749Z,4.35
2018-01-11T18:41:59.054Z,6.35
2018-01-11T18:44:26.609Z,4.53
2018-01-11T18:46:54.124Z,5.15
2018-01-11T18:49:21.595Z,5.57
2018-01-11T18:51:49.173Z,4.60
2018-01-11T18:54:16.721Z,4.07
2018-01-11T18:56:44.259Z,4.25
2018-01-11T18:59:12.789Z,4.20
2018-01-11T19:01:40.340Z,3.55
2018-01-11T19:04:07.886Z,3.83
2018-01-11T19:06:36.208Z,3.72
2018-01-11T19:09:03.776Z,3.47
2018-01-11T19:11:31.318Z,3.30
2018-01-11T19:13:58.877Z,2.80
2018-01-11T19:16:26.452Z,4.35
2018-01-11T19:18:54.014Z,3.75
2018-01-11T19:21:21.550Z,4.40
2018-01-11T19:23:49.118Z,4.80
2018-01-11T19:26:16.651Z,5.50
2018-01-11T19:28:44.152Z,3.92
2018-01-11T19:31:11.726Z,3.22
2018-01-11T19:33:39.278Z,4.55
2018-01-11T19:36:07.036Z,4.22
2018-01-11T19:38:34.665Z,3.97
2018-01-11T19:41:02.241Z,3.12
2018-01-11T19:43:29.780Z,3.40
2018-01-11T19:45:57.379Z,3.87
2018-01-11T19:48:25.108Z,2.97
2018-01-11T19:50:52.681Z,4.62
2018-01-11T19:53:20.240Z,2.62
2018-01-11T19:55:47.798Z,3.10
2018-01-11T19:58:15.347Z,4.00
2018-01-11T20:00:42.900Z,4.53
2018-01-11T20:03:10.476Z,4.40
2018-01-11T20:05:38.013Z,3.47
2018-01-11T20:08:05.530Z,3.70
2018-01-11T20:10:33.235Z,5.05
2018-01-11T20:13:00.756Z,5.07
2018-01-11T20:15:28.340Z,3.83
2018-01-11T20:17:55.925Z,4.55
2018-01-11T20:20:23.460Z,4.68
2018-01-11T20:22:51.078Z,4.85
2018-01-11T20:25:18.614Z,5.15
2018-01-11T20:27:46.175Z,4.15
2018-01-11T20:30:13.763Z,4.00
2018-01-11T20:32:41.340Z,4.35
2018-01-11T20:35:08.913Z,3.87
2018-01-11T20:37:37.124Z,4.03
2018-01-11T20:40:04.691Z,4.20
2018-01-11T20:42:32.242Z,3.70
2018-01-11T20:44:59.840Z,3.60
2018-01-11T20:47:27.388Z,3.22
2018-01-11T20:49:54.830Z,3.85
2018-01-11T20:52:22.390Z,3.55
2018-01-11T20:54:49.894Z,4.32
2018-01-11T20:57:17.487Z,3.60
2018-01-11T20:59:46.079Z,5.12
2018-01-11T21:02:13.609Z,3.70
2018-01-11T21:04:41.946Z,4.07
2018-01-11T21:07:10.976Z,6.00
2018-01-11T21:09:39.199Z,4.37
2018-01-11T21:12:06.831Z,4.00
2018-01-11T21:14:34.386Z,5.30
2018-01-11T21:17:01.955Z,4.70
2018-01-11T21:19:29.508Z,4.82
2018-01-11T21:21:57.113Z,3.78
2018-01-11T21:24:24.639Z,3.75
2018-01-11T21:26:52.172Z,3.60
2018-01-11T21:29:19.702Z,4.85
2018-01-11T21:31:47.231Z,3.85
2018-01-11T21:34:14.722Z,3.40
2018-01-11T21:36:42.244Z,4.00
2018-01-11T21:39:09.930Z,3.95
2018-01-11T21:41:37.426Z,3.85
2018-01-11T21:44:05.873Z,4.25
2018-01-11T21:46:33.402Z,2.83
2018-01-11T21:49:00.980Z,4.37
2018-01-11T21:51:28.499Z,4.70
2018-01-11T21:53:56.021Z,3.75
2018-01-11T21:56:23.539Z,4.47
2018-01-11T21:58:51.236Z,4.62
2018-01-11T22:01:18.743Z,5.05
2018-01-11T22:03:46.279Z,5.15
2018-01-11T22:06:13.797Z,5.22
2018-01-11T22:08:41.328Z,4.32
2018-01-11T22:11:08.879Z,5.07
2018-01-11T22:13:36.396Z,5.30
2018-01-11T22:16:03.929Z,4.90
2018-01-11T22:18:31.550Z,5.22
2018-01-11T22:20:59.061Z,5.87
2018-01-11T22:23:26.581Z,4.53
2018-01-11T22:25:54.159Z,4.82
2018-01-11T22:28:21.920Z,4.20
2018-01-11T22:30:49.466Z,6.68
2018-01-11T22:33:16.973Z,5.35
2018-01-11T22:35:46.107Z,6.18
2018-01-11T22:38:13.559Z,4.90
2018-01-11T22:40:41.065Z,5.03
2018-01-11T22:43:08.629Z,4.00
2018-01-11T22:45:36.178Z,4.75
2018-01-11T22:48:03.693Z,6.00
2018-01-11T22:50:31.960Z,6.00
2018-01-11T22:53:00.220Z,6.37
2018-01-11T22:55:28.029Z,8.60
2018-01-11T22:57:55.573Z,5.43
2018-01-11T23:00:23.849Z,8.27
2018-01-11T23:02:52.144Z,6.07
2018-01-11T23:05:19.882Z,5.90
2018-01-11T23:07:47.408Z,4.68
2018-01-11T23:10:14.914Z,7.00
2018-01-11T23:12:42.483Z,9.18
2018-01-11T23:15:10.009Z,8.25
2018-01-11T23:17:38.281Z,7.05
2018-01-11T23:20:05.836Z,9.80
2018-01-11T23:22:33.271Z,7.65
2018-01-11T23:25:00.782Z,6.57
2018-01-11T23:27:29.239Z,7.50
2018-01-11T23:29:57.940Z,6.50
2018-01-11T23:32:25.510Z,8.48
2018-01-11T23:34:53.077Z,7.00
2018-01-11T23:37:20.622Z,6.18
2018-01-11T23:39:48.940Z,6.97
2018-01-11T23:42:16.535Z,9.05
2018-01-11T23:44:47.006Z,7.37
2018-01-11T23:47:14.571Z,8.13
2018-01-11T23:49:42.082Z,8.20
2018-01-11T23:52:10.520Z,8.02
2018-01-11T23:54:38.078Z,7.90
2018-01-11T23:57:05.741Z,7.72
2018-01-11T23:59:33.213Z,9.68
